Terminal Aerodrome Forecast
Issued by NWS

Home | Current Version | Previous Version | Text Only | Print | Product List | Glossary On
Versions: 1 2 3 4 5 6 7 8 9 10 11 12 13 14 15 16 17 18 19 20 21
000
FTUS41 KOKX 060830 AAA
TAFHPN
TAF AMD
KHPN 060830Z 0609/0706 01005KT P6SM FEW070 BKN100
     FM061200 03007KT P6SM VCSH FEW060 BKN080
     FM061600 08008KT P6SM BKN080
     FM062200 12006KT P6SM BKN080
     FM070100 VRB03KT P6SM SCT080 BKN250
      AMD NOT SKED=

USA.gov is the U.S. government's official web portal to all federal, state and local government web resources and services.